Main page
METAR-TAF:

METAR-TAF

Airports :

RAF Cranwell

Cranwell, England

latitude: 53-02N, longitude: 000-30W, elevation: 67 m

Current weather observation

The report was made 1 hour and 14 minutes ago, at 06:50 UTC
Wind 2 kt from the North/Northwest
Temperature -3°C
Humidity 100%
Pressure 1015 hPa
Visibility: 3000 m
Scattered clouds at a height of 2500 ft
mist

METAR: EGYD 200650Z 33002KT 3000 BR SCT025 M03/M03 Q1015 YLO1

Time: 08:04 (08:04 UTC)

Forecast

The report was made 3 hours and 8 minutes ago, at 04:56 UTC
Forecast valid from 20 at 06 UTC to 20 at 15 UTC
Wind 4 kt from variable directions
Visibility: 4000 m
Scattered clouds at a height of 2500 ft
mist
Probability 30%
from 20 at 06 UTC to 20 at 10 UTC
Visibility: 2000 m
Becoming
from 20 at 09 UTC to 20 at 12 UTC
Visibility 10 km or more
Probability 40%
from 20 at 13 UTC to 20 at 15 UTC
Broken clouds at a height of 1600 ft

TAF: EGYD 200456Z 2006/2015 VRB04KT 4000 BR SCT025 PROB30 2006/2010 2000 BECMG 2009/2012 9999 NSW PROB40 2013/2015 BKN016

Weather observations and forecasts of more than 4000 airports (METAR and TAF reports).

The available stations are represented by yellow and red dots on the map.

Hover mouse over dot to see the name of the station.

Then click to see weather observations and forecasts.

To change the map : click on the green buttons with a black cross to zoom in, on the green button with a dash to zoom out, or on the green arrows for adjacent maps.


METAR-TAF: